sensor_id;sensor_type;location;lat;lon;timestamp;pressure;altitude;pressure_sealevel;temperature;humidity
45369;BME280;51342;55.250;37.668;2024-01-10T00:00:21;98507.59;;;-4.85;82.35
45369;BME280;51342;55.250;37.668;2024-01-10T00:02:52;98508.03;;;-4.80;82.57
45369;BME280;51342;55.250;37.668;2024-01-10T00:05:24;98489.63;;;-4.79;82.59
45369;BME280;51342;55.250;37.668;2024-01-10T00:07:55;98487.25;;;-4.77;82.69
45369;BME280;51342;55.250;37.668;2024-01-10T00:10:28;98480.75;;;-4.75;82.50
45369;BME280;51342;55.250;37.668;2024-01-10T00:13:01;98481.31;;;-4.69;82.66
45369;BME280;51342;55.250;37.668;2024-01-10T00:15:32;98485.00;;;-4.66;82.80
45369;BME280;51342;55.250;37.668;2024-01-10T00:18:04;98473.59;;;-4.62;82.82
45369;BME280;51342;55.250;37.668;2024-01-10T00:20:35;98469.56;;;-4.60;82.98
45369;BME280;51342;55.250;37.668;2024-01-10T00:23:06;98463.94;;;-4.58;82.87
45369;BME280;51342;55.250;37.668;2024-01-10T00:25:38;98448.19;;;-4.55;82.94
45369;BME280;51342;55.250;37.668;2024-01-10T00:28:10;98450.25;;;-4.51;83.19
45369;BME280;51342;55.250;37.668;2024-01-10T00:30:41;98437.94;;;-4.48;83.34
45369;BME280;51342;55.250;37.668;2024-01-10T00:33:13;98435.84;;;-4.43;83.23
45369;BME280;51342;55.250;37.668;2024-01-10T00:35:45;98431.84;;;-4.41;83.41
45369;BME280;51342;55.250;37.668;2024-01-10T00:38:16;98432.28;;;-4.37;83.29
45369;BME280;51342;55.250;37.668;2024-01-10T00:40:48;98431.78;;;-4.33;83.41
45369;BME280;51342;55.250;37.668;2024-01-10T00:43:19;98422.75;;;-4.31;83.54
45369;BME280;51342;55.250;37.668;2024-01-10T00:45:51;98416.06;;;-4.30;83.38
45369;BME280;51342;55.250;37.668;2024-01-10T00:48:22;98417.66;;;-4.22;83.43
45369;BME280;51342;55.250;37.668;2024-01-10T00:50:54;98417.06;;;-4.19;83.84
45369;BME280;51342;55.250;37.668;2024-01-10T00:53:25;98420.75;;;-4.16;83.79
45369;BME280;51342;55.250;37.668;2024-01-10T00:55:57;98409.31;;;-4.12;83.88
45369;BME280;51342;55.250;37.668;2024-01-10T00:58:28;98402.75;;;-4.10;83.84
45369;BME280;51342;55.250;37.668;2024-01-10T01:01:00;98404.94;;;-4.05;83.67
45369;BME280;51342;55.250;37.668;2024-01-10T01:03:31;98402.72;;;-4.02;84.04
45369;BME280;51342;55.250;37.668;2024-01-10T01:06:02;98395.69;;;-3.95;84.26
45369;BME280;51342;55.250;37.668;2024-01-10T01:08:34;98402.66;;;-3.93;83.87
45369;BME280;51342;55.250;37.668;2024-01-10T01:11:05;98391.06;;;-3.91;84.10
45369;BME280;51342;55.250;37.668;2024-01-10T01:13:37;98406.78;;;-3.85;84.30
45369;BME280;51342;55.250;37.668;2024-01-10T01:16:10;98416.41;;;-3.81;84.29
45369;BME280;51342;55.250;37.668;2024-01-10T01:18:41;98412.66;;;-3.76;84.33
45369;BME280;51342;55.250;37.668;2024-01-10T01:21:16;98421.28;;;-3.74;84.24
45369;BME280;51342;55.250;37.668;2024-01-10T01:23:47;98421.09;;;-3.66;84.45
45369;BME280;51342;55.250;37.668;2024-01-10T01:26:19;98410.53;;;-3.62;84.55
45369;BME280;51342;55.250;37.668;2024-01-10T01:28:50;98421.19;;;-3.56;84.46
45369;BME280;51342;55.250;37.668;2024-01-10T01:31:21;98425.75;;;-3.52;84.61
45369;BME280;51342;55.250;37.668;2024-01-10T01:33:53;98423.50;;;-3.49;84.69
45369;BME280;51342;55.250;37.668;2024-01-10T01:36:24;98418.00;;;-3.45;84.57
45369;BME280;51342;55.250;37.668;2024-01-10T01:38:56;98423.31;;;-3.42;84.74
45369;BME280;51342;55.250;37.668;2024-01-10T01:41:27;98416.91;;;-3.38;84.86
45369;BME280;51342;55.250;37.668;2024-01-10T01:43:58;98440.34;;;-3.31;85.09
45369;BME280;51342;55.250;37.668;2024-01-10T01:46:31;98436.59;;;-3.26;85.02
45369;BME280;51342;55.250;37.668;2024-01-10T01:49:03;98435.66;;;-3.17;84.94
45369;BME280;51342;55.250;37.668;2024-01-10T01:51:35;98437.09;;;-3.11;84.79
45369;BME280;51342;55.250;37.668;2024-01-10T01:54:09;98438.09;;;-3.09;85.04
45369;BME280;51342;55.250;37.668;2024-01-10T01:56:42;98447.88;;;-3.03;85.15
45369;BME280;51342;55.250;37.668;2024-01-10T01:59:15;98445.75;;;-2.99;84.94
45369;BME280;51342;55.250;37.668;2024-01-10T02:01:46;98457.94;;;-2.95;85.27
45369;BME280;51342;55.250;37.668;2024-01-10T02:04:19;98459.97;;;-2.90;85.13
45369;BME280;51342;55.250;37.668;2024-01-10T02:06:51;98467.84;;;-2.87;85.21
45369;BME280;51342;55.250;37.668;2024-01-10T02:09:23;98472.16;;;-2.86;85.35
45369;BME280;51342;55.250;37.668;2024-01-10T02:11:55;98460.66;;;-2.83;85.33
45369;BME280;51342;55.250;37.668;2024-01-10T02:14:26;98468.38;;;-2.81;85.42
45369;BME280;51342;55.250;37.668;2024-01-10T02:16:58;98466.75;;;-2.81;85.55
45369;BME280;51342;55.250;37.668;2024-01-10T02:19:30;98478.94;;;-2.77;85.59
45369;BME280;51342;55.250;37.668;2024-01-10T02:22:03;98474.75;;;-2.76;85.54
45369;BME280;51342;55.250;37.668;2024-01-10T02:24:35;98487.53;;;-2.75;85.65
45369;BME280;51342;55.250;37.668;2024-01-10T02:27:07;98495.53;;;-2.70;85.62
45369;BME280;51342;55.250;37.668;2024-01-10T02:29:38;98498.50;;;-2.65;85.63
45369;BME280;51342;55.250;37.668;2024-01-10T02:32:10;98503.81;;;-2.62;85.67
45369;BME280;51342;55.250;37.668;2024-01-10T02:34:41;98507.38;;;-2.60;85.61
45369;BME280;51342;55.250;37.668;2024-01-10T02:37:12;98513.59;;;-2.57;85.41
45369;BME280;51342;55.250;37.668;2024-01-10T02:39:44;98509.56;;;-2.55;85.58
45369;BME280;51342;55.250;37.668;2024-01-10T02:42:15;98521.72;;;-2.51;85.48
45369;BME280;51342;55.250;37.668;2024-01-10T02:44:47;98526.31;;;-2.47;85.32
45369;BME280;51342;55.250;37.668;2024-01-10T02:47:18;98528.09;;;-2.46;85.49
45369;BME280;51342;55.250;37.668;2024-01-10T02:49:49;98535.81;;;-2.44;85.27
45369;BME280;51342;55.250;37.668;2024-01-10T02:52:21;98526.31;;;-2.47;85.32
45369;BME280;51342;55.250;37.668;2024-01-10T02:54:52;98541.09;;;-2.51;85.05
45369;BME280;51342;55.250;37.668;2024-01-10T02:57:24;98540.50;;;-2.49;85.05
45369;BME280;51342;55.250;37.668;2024-01-10T02:59:56;98553.28;;;-2.47;84.78
45369;BME280;51342;55.250;37.668;2024-01-10T03:02:27;98555.28;;;-2.53;84.30
45369;BME280;51342;55.250;37.668;2024-01-10T03:04:58;98579.97;;;-2.51;83.84
45369;BME280;51342;55.250;37.668;2024-01-10T03:07:30;98596.66;;;-2.53;83.81
45369;BME280;51342;55.250;37.668;2024-01-10T03:10:01;98603.97;;;-2.56;83.45
45369;BME280;51342;55.250;37.668;2024-01-10T03:12:33;98604.72;;;-2.57;83.20
45369;BME280;51342;55.250;37.668;2024-01-10T03:15:08;98616.72;;;-2.64;83.01
45369;BME280;51342;55.250;37.668;2024-01-10T03:17:39;98634.78;;;-2.70;82.74
45369;BME280;51342;55.250;37.668;2024-01-10T03:20:11;98641.94;;;-2.75;82.87
45369;BME280;51342;55.250;37.668;2024-01-10T03:22:42;98635.44;;;-2.81;82.90
45369;BME280;51342;55.250;37.668;2024-01-10T03:25:14;98649.59;;;-2.83;82.73
45369;BME280;51342;55.250;37.668;2024-01-10T03:27:45;98658.25;;;-2.90;82.55
45369;BME280;51342;55.250;37.668;2024-01-10T03:30:16;98677.66;;;-2.99;82.44
45369;BME280;51342;55.250;37.668;2024-01-10T03:32:49;98658.75;;;-3.03;81.97
45369;BME280;51342;55.250;37.668;2024-01-10T03:35:21;98670.97;;;-3.07;81.46
45369;BME280;51342;55.250;37.668;2024-01-10T03:37:52;98675.63;;;-3.12;81.04
45369;BME280;51342;55.250;37.668;2024-01-10T03:40:23;98690.38;;;-3.16;80.74
45369;BME280;51342;55.250;37.668;2024-01-10T03:42:55;98712.72;;;-3.21;80.42
45369;BME280;51342;55.250;37.668;2024-01-10T03:45:26;98725.34;;;-3.30;79.96
45369;BME280;51342;55.250;37.668;2024-01-10T03:47:58;98727.19;;;-3.37;79.72
45369;BME280;51342;55.250;37.668;2024-01-10T03:50:29;98739.38;;;-3.42;79.49
45369;BME280;51342;55.250;37.668;2024-01-10T03:53:00;98749.78;;;-3.48;79.36
45369;BME280;51342;55.250;37.668;2024-01-10T03:55:32;98772.84;;;-3.53;78.89
45369;BME280;51342;55.250;37.668;2024-01-10T03:58:04;98764.41;;;-3.62;78.34
45369;BME280;51342;55.250;37.668;2024-01-10T04:00:35;98773.94;;;-3.68;77.91
45369;BME280;51342;55.250;37.668;2024-01-10T04:03:07;98785.50;;;-3.79;77.48
45369;BME280;51342;55.250;37.668;2024-01-10T04:05:38;98807.06;;;-3.83;76.99
45369;BME280;51342;55.250;37.668;2024-01-10T04:08:09;98829.19;;;-3.89;76.76
45369;BME280;51342;55.250;37.668;2024-01-10T04:10:41;98844.94;;;-4.00;76.30
45369;BME280;51342;55.250;37.668;2024-01-10T04:13:12;98859.16;;;-4.18;75.86
45369;BME280;51342;55.250;37.668;2024-01-10T04:15:44;98868.88;;;-4.38;75.99
45369;BME280;51342;55.250;37.668;2024-01-10T04:18:15;98878.75;;;-4.57;76.10
45369;BME280;51342;55.250;37.668;2024-01-10T04:20:49;98879.38;;;-4.75;75.85
45369;BME280;51342;55.250;37.668;2024-01-10T04:23:20;98892.94;;;-4.91;75.63
45369;BME280;51342;55.250;37.668;2024-01-10T04:25:52;98916.50;;;-4.99;75.82
45369;BME280;51342;55.250;37.668;2024-01-10T04:28:23;98925.97;;;-5.21;75.04
45369;BME280;51342;55.250;37.668;2024-01-10T04:30:54;98932.38;;;-5.31;75.42
45369;BME280;51342;55.250;37.668;2024-01-10T04:33:26;98943.28;;;-5.40;75.68
45369;BME280;51342;55.250;37.668;2024-01-10T04:35:57;98958.56;;;-5.54;75.47
45369;BME280;51342;55.250;37.668;2024-01-10T04:38:29;98975.19;;;-5.79;74.96
45369;BME280;51342;55.250;37.668;2024-01-10T04:41:00;98991.44;;;-6.00;74.74
45369;BME280;51342;55.250;37.668;2024-01-10T04:43:32;99004.69;;;-6.17;74.89
45369;BME280;51342;55.250;37.668;2024-01-10T04:46:03;99017.41;;;-6.38;74.70
45369;BME280;51342;55.250;37.668;2024-01-10T04:48:34;99023.31;;;-6.60;74.90
45369;BME280;51342;55.250;37.668;2024-01-10T04:51:06;99042.94;;;-6.72;74.91
45369;BME280;51342;55.250;37.668;2024-01-10T04:53:38;99051.06;;;-6.82;74.87
45369;BME280;51342;55.250;37.668;2024-01-10T04:56:09;99067.47;;;-7.00;74.21
45369;BME280;51342;55.250;37.668;2024-01-10T04:58:41;99076.16;;;-7.19;74.02
45369;BME280;51342;55.250;37.668;2024-01-10T05:01:12;99091.09;;;-7.35;74.13
45369;BME280;51342;55.250;37.668;2024-01-10T05:03:44;99099.88;;;-7.45;74.04
45369;BME280;51342;55.250;37.668;2024-01-10T05:06:15;99100.44;;;-7.55;74.06
45369;BME280;51342;55.250;37.668;2024-01-10T05:08:46;99116.59;;;-7.67;74.10
45369;BME280;51342;55.250;37.668;2024-01-10T05:11:18;99120.00;;;-7.74;74.23
45369;BME280;51342;55.250;37.668;2024-01-10T05:13:49;99128.38;;;-7.95;73.59
45369;BME280;51342;55.250;37.668;2024-01-10T05:16:21;99142.56;;;-8.03;73.54
45369;BME280;51342;55.250;37.668;2024-01-10T05:18:52;99157.94;;;-8.14;73.64
45369;BME280;51342;55.250;37.668;2024-01-10T05:21:24;99159.16;;;-8.24;73.52
45369;BME280;51342;55.250;37.668;2024-01-10T05:23:55;99182.44;;;-8.33;73.44
45369;BME280;51342;55.250;37.668;2024-01-10T05:26:27;99175.28;;;-8.37;73.45
45369;BME280;51342;55.250;37.668;2024-01-10T05:28:58;99187.28;;;-8.41;73.50
45369;BME280;51342;55.250;37.668;2024-01-10T05:31:30;99198.34;;;-8.46;73.45
45369;BME280;51342;55.250;37.668;2024-01-10T05:34:01;99207.81;;;-8.51;73.60
45369;BME280;51342;55.250;37.668;2024-01-10T05:36:33;99223.59;;;-8.52;73.63
45369;BME280;51342;55.250;37.668;2024-01-10T05:39:05;99228.97;;;-8.56;73.57
45369;BME280;51342;55.250;37.668;2024-01-10T05:41:36;99250.00;;;-8.68;73.49
45369;BME280;51342;55.250;37.668;2024-01-10T05:44:08;99253.72;;;-8.79;73.24
45369;BME280;51342;55.250;37.668;2024-01-10T05:46:39;99257.91;;;-8.92;73.25
45369;BME280;51342;55.250;37.668;2024-01-10T05:49:10;99264.78;;;-9.04;73.04
45369;BME280;51342;55.250;37.668;2024-01-10T05:51:42;99268.50;;;-9.08;73.25
45369;BME280;51342;55.250;37.668;2024-01-10T05:54:13;99278.16;;;-9.11;73.24
45369;BME280;51342;55.250;37.668;2024-01-10T05:56:45;99290.28;;;-9.14;73.19
45369;BME280;51342;55.250;37.668;2024-01-10T05:59:16;99289.53;;;-9.20;73.21
45369;BME280;51342;55.250;37.668;2024-01-10T06:01:48;99304.56;;;-9.20;73.10
45369;BME280;51342;55.250;37.668;2024-01-10T06:04:19;99307.28;;;-9.18;73.30
45369;BME280;51342;55.250;37.668;2024-01-10T06:06:51;99319.47;;;-9.14;73.23
45369;BME280;51342;55.250;37.668;2024-01-10T06:09:22;99320.03;;;-9.10;73.36
45369;BME280;51342;55.250;37.668;2024-01-10T06:11:54;99337.09;;;-9.07;73.30
45369;BME280;51342;55.250;37.668;2024-01-10T06:14:25;99333.88;;;-9.06;73.41
45369;BME280;51342;55.250;37.668;2024-01-10T06:16:57;99341.16;;;-9.08;73.46
45369;BME280;51342;55.250;37.668;2024-01-10T06:19:30;99357.69;;;-9.02;73.25
45369;BME280;51342;55.250;37.668;2024-01-10T06:22:04;99368.66;;;-9.15;73.11
45369;BME280;51342;55.250;37.668;2024-01-10T06:24:36;99382.22;;;-9.20;73.16
45369;BME280;51342;55.250;37.668;2024-01-10T06:27:08;99391.16;;;-9.22;73.25
45369;BME280;51342;55.250;37.668;2024-01-10T06:29:41;99394.38;;;-9.23;73.27
45369;BME280;51342;55.250;37.668;2024-01-10T06:32:12;99413.72;;;-9.22;73.18
45369;BME280;51342;55.250;37.668;2024-01-10T06:34:45;99416.50;;;-9.26;73.09
45369;BME280;51342;55.250;37.668;2024-01-10T06:37:16;99424.94;;;-9.25;73.25
45369;BME280;51342;55.250;37.668;2024-01-10T06:39:48;99425.81;;;-9.25;73.13
45369;BME280;51342;55.250;37.668;2024-01-10T06:42:19;99428.13;;;-9.26;73.09
45369;BME280;51342;55.250;37.668;2024-01-10T06:44:51;99430.47;;;-9.28;73.03
45369;BME280;51342;55.250;37.668;2024-01-10T07:09:09;99484.66;;;-8.83;68.13
45369;BME280;51342;55.250;37.668;2024-01-10T07:11:41;99501.09;;;-9.18;69.27
45369;BME280;51342;55.250;37.668;2024-01-10T07:14:13;99516.03;;;-9.38;70.00
45369;BME280;51342;55.250;37.668;2024-01-10T07:16:45;99509.94;;;-9.52;70.49
45369;BME280;51342;55.250;37.668;2024-01-10T07:19:18;99527.16;;;-9.61;70.58
45369;BME280;51342;55.250;37.668;2024-01-10T07:21:50;99534.06;;;-9.66;70.70
45369;BME280;51342;55.250;37.668;2024-01-10T07:24:21;99542.56;;;-9.71;70.83
45369;BME280;51342;55.250;37.668;2024-01-10T07:26:53;99547.38;;;-9.72;70.81
45369;BME280;51342;55.250;37.668;2024-01-10T07:29:24;99545.56;;;-9.73;70.89
45369;BME280;51342;55.250;37.668;2024-01-10T07:31:56;99552.91;;;-9.75;70.93
45369;BME280;51342;55.250;37.668;2024-01-10T07:34:27;99560.19;;;-9.76;70.86
45369;BME280;51342;55.250;37.668;2024-01-10T07:36:58;99565.00;;;-9.78;70.95
45369;BME280;51342;55.250;37.668;2024-01-10T07:39:30;99577.13;;;-9.81;70.88
45369;BME280;51342;55.250;37.668;2024-01-10T07:42:02;99556.34;;;-9.93;71.01
45369;BME280;51342;55.250;37.668;2024-01-10T07:44:36;99576.69;;;-9.84;70.90
45369;BME280;51342;55.250;37.668;2024-01-10T07:47:08;99584.41;;;-9.82;71.04
45369;BME280;51342;55.250;37.668;2024-01-10T07:49:39;99585.28;;;-9.82;71.11
45369;BME280;51342;55.250;37.668;2024-01-10T07:52:11;99592.72;;;-9.76;71.13
45369;BME280;51342;55.250;37.668;2024-01-10T07:54:42;99584.13;;;-9.78;71.23
45369;BME280;51342;55.250;37.668;2024-01-10T07:57:14;99578.91;;;-9.80;71.28
45369;BME280;51342;55.250;37.668;2024-01-10T07:59:45;99596.25;;;-9.69;71.30
45369;BME280;51342;55.250;37.668;2024-01-10T08:02:17;99606.97;;;-9.70;71.14
45369;BME280;51342;55.250;37.668;2024-01-10T08:04:49;99610.47;;;-9.75;71.03
45369;BME280;51342;55.250;37.668;2024-01-10T08:07:20;99615.06;;;-9.78;71.17
45369;BME280;51342;55.250;37.668;2024-01-10T08:09:51;99615.47;;;-9.75;71.36
45369;BME280;51342;55.250;37.668;2024-01-10T08:12:23;99611.44;;;-9.80;70.87
45369;BME280;51342;55.250;37.668;2024-01-10T08:14:55;99614.44;;;-9.82;71.20
45369;BME280;51342;55.250;37.668;2024-01-10T08:17:26;99626.94;;;-9.82;71.22
45369;BME280;51342;55.250;37.668;2024-01-10T08:19:59;99625.16;;;-9.83;71.25
45369;BME280;51342;55.250;37.668;2024-01-10T08:22:31;99626.75;;;-9.84;71.39
45369;BME280;51342;55.250;37.668;2024-01-10T08:25:04;99631.31;;;-9.87;71.30
45369;BME280;51342;55.250;37.668;2024-01-10T08:27:35;99629.13;;;-9.91;71.35
45369;BME280;51342;55.250;37.668;2024-01-10T08:30:07;99635.44;;;-9.88;71.27
45369;BME280;51342;55.250;37.668;2024-01-10T08:32:41;99644.97;;;-9.85;71.26
45369;BME280;51342;55.250;37.668;2024-01-10T08:35:12;99644.28;;;-9.84;71.26
45369;BME280;51342;55.250;37.668;2024-01-10T08:37:44;99644.19;;;-9.78;71.19
45369;BME280;51342;55.250;37.668;2024-01-10T08:40:15;99644.19;;;-9.78;71.05
45369;BME280;51342;55.250;37.668;2024-01-10T08:42:48;99639.81;;;-9.74;71.07
45369;BME280;51342;55.250;37.668;2024-01-10T08:45:19;99640.81;;;-9.66;70.84
45369;BME280;51342;55.250;37.668;2024-01-10T08:47:51;99649.13;;;-9.60;70.71
45369;BME280;51342;55.250;37.668;2024-01-10T08:50:22;99642.13;;;-9.63;70.45
45369;BME280;51342;55.250;37.668;2024-01-10T08:52:54;99656.44;;;-9.62;70.46
45369;BME280;51342;55.250;37.668;2024-01-10T08:55:25;99660.13;;;-9.65;70.51
45369;BME280;51342;55.250;37.668;2024-01-10T08:57:57;99654.53;;;-9.70;70.58
45369;BME280;51342;55.250;37.668;2024-01-10T09:00:29;99660.44;;;-9.69;70.59
45369;BME280;51342;55.250;37.668;2024-01-10T09:03:02;99665.44;;;-9.69;70.29
45369;BME280;51342;55.250;37.668;2024-01-10T09:05:33;99676.13;;;-9.70;70.46
45369;BME280;51342;55.250;37.668;2024-01-10T09:08:05;99665.22;;;-9.71;70.24
45369;BME280;51342;55.250;37.668;2024-01-10T09:10:36;99676.75;;;-9.66;70.32
45369;BME280;51342;55.250;37.668;2024-01-10T09:13:09;99669.66;;;-9.63;70.26
45369;BME280;51342;55.250;37.668;2024-01-10T09:15:41;99674.78;;;-9.55;70.22
45369;BME280;51342;55.250;37.668;2024-01-10T09:18:12;99678.19;;;-9.55;70.23
45369;BME280;51342;55.250;37.668;2024-01-10T09:20:44;99675.31;;;-9.58;70.15
45369;BME280;51342;55.250;37.668;2024-01-10T09:23:16;99676.31;;;-9.50;70.26
45369;BME280;51342;55.250;37.668;2024-01-10T09:25:47;99677.53;;;-9.41;70.32
45369;BME280;51342;55.250;37.668;2024-01-10T09:28:19;99680.97;;;-9.28;70.02
45369;BME280;51342;55.250;37.668;2024-01-10T09:30:50;99687.22;;;-9.19;70.03
45369;BME280;51342;55.250;37.668;2024-01-10T09:33:22;99685.41;;;-9.07;69.72
45369;BME280;51342;55.250;37.668;2024-01-10T09:35:54;99690.00;;;-8.97;69.77
45369;BME280;51342;55.250;37.668;2024-01-10T09:38:25;99692.94;;;-8.94;69.51
45369;BME280;51342;55.250;37.668;2024-01-10T09:40:59;99693.22;;;-8.98;69.45
45369;BME280;51342;55.250;37.668;2024-01-10T09:43:34;99700.03;;;-8.97;69.63
45369;BME280;51342;55.250;37.668;2024-01-10T09:46:07;99688.63;;;-8.95;69.48
45369;BME280;51342;55.250;37.668;2024-01-10T09:48:38;99696.34;;;-8.94;69.54
45369;BME280;51342;55.250;37.668;2024-01-10T09:51:10;99698.13;;;-8.93;69.69
45369;BME280;51342;55.250;37.668;2024-01-10T09:53:48;99708.88;;;-8.94;69.32
45369;BME280;51342;55.250;37.668;2024-01-10T09:56:21;99700.25;;;-8.96;69.51
45369;BME280;51342;55.250;37.668;2024-01-10T09:58:53;99697.66;;;-8.90;69.61
45369;BME280;51342;55.250;37.668;2024-01-10T10:01:26;99706.88;;;-8.84;69.44
45369;BME280;51342;55.250;37.668;2024-01-10T10:03:58;99702.94;;;-8.82;69.45
45369;BME280;51342;55.250;37.668;2024-01-10T10:06:29;99708.78;;;-8.75;69.38
45369;BME280;51342;55.250;37.668;2024-01-10T10:09:01;99717.28;;;-8.68;69.28
45369;BME280;51342;55.250;37.668;2024-01-10T10:11:32;99710.78;;;-8.60;69.18
45369;BME280;51342;55.250;37.668;2024-01-10T10:14:14;99714.38;;;-8.58;69.06
45369;BME280;51342;55.250;37.668;2024-01-10T10:16:47;99707.47;;;-8.53;69.01
45369;BME280;51342;55.250;37.668;2024-01-10T10:19:25;99706.84;;;-8.58;68.83
45369;BME280;51342;55.250;37.668;2024-01-10T10:22:08;99709.88;;;-8.61;69.07
45369;BME280;51342;55.250;37.668;2024-01-10T10:24:41;99698.63;;;-8.57;69.09
45369;BME280;51342;55.250;37.668;2024-01-10T10:27:16;99698.13;;;-8.55;68.94
45369;BME280;51342;55.250;37.668;2024-01-10T10:29:48;99698.03;;;-8.49;69.04
45369;BME280;51342;55.250;37.668;2024-01-10T10:32:20;99697.22;;;-8.42;68.95
45369;BME280;51342;55.250;37.668;2024-01-10T10:34:52;99702.22;;;-8.42;68.98
45369;BME280;51342;55.250;37.668;2024-01-10T10:37:23;99704.75;;;-8.42;68.73
45369;BME280;51342;55.250;37.668;2024-01-10T10:39:55;99712.56;;;-8.46;68.78
45369;BME280;51342;55.250;37.668;2024-01-10T10:42:28;99716.97;;;-8.51;68.69
45369;BME280;51342;55.250;37.668;2024-01-10T10:45:06;99716.69;;;-8.60;68.65
45369;BME280;51342;55.250;37.668;2024-01-10T10:47:41;99724.31;;;-8.65;68.74
45369;BME280;51342;55.250;37.668;2024-01-10T10:50:20;99717.41;;;-8.73;68.63
45369;BME280;51342;55.250;37.668;2024-01-10T10:52:52;99722.81;;;-8.83;68.82
45369;BME280;51342;55.250;37.668;2024-01-10T10:55:26;99722.72;;;-8.90;68.83
45369;BME280;51342;55.250;37.668;2024-01-10T10:57:59;99723.50;;;-8.97;68.78
45369;BME280;51342;55.250;37.668;2024-01-10T11:00:32;99718.78;;;-9.01;68.76
45369;BME280;51342;55.250;37.668;2024-01-10T11:03:05;99711.66;;;-9.11;68.67
45369;BME280;51342;55.250;37.668;2024-01-10T11:05:40;99721.69;;;-9.11;68.91
45369;BME280;51342;55.250;37.668;2024-01-10T11:08:15;99724.00;;;-9.12;69.14
45369;BME280;51342;55.250;37.668;2024-01-10T11:10:51;99723.09;;;-9.13;68.87
45369;BME280;51342;55.250;37.668;2024-01-10T11:16:28;99741.91;;;-9.22;68.96
45369;BME280;51342;55.250;37.668;2024-01-10T11:25:19;99735.38;;;-9.27;68.90
45369;BME280;51342;55.250;37.668;2024-01-10T11:27:53;99731.53;;;-9.30;68.91
45369;BME280;51342;55.250;37.668;2024-01-10T11:30:35;99732.06;;;-9.33;68.69
45369;BME280;51342;55.250;37.668;2024-01-10T11:33:20;99730.97;;;-9.35;68.83
45369;BME280;51342;55.250;37.668;2024-01-10T11:36:12;99732.66;;;-9.41;68.85
45369;BME280;51342;55.250;37.668;2024-01-10T11:38:49;99733.03;;;-9.38;68.73
45369;BME280;51342;55.250;37.668;2024-01-10T11:41:35;99737.66;;;-9.41;68.88
45369;BME280;51342;55.250;37.668;2024-01-10T11:46:48;99732.22;;;-9.44;68.87
45369;BME280;51342;55.250;37.668;2024-01-10T11:49:21;99727.63;;;-9.41;68.81
45369;BME280;51342;55.250;37.668;2024-01-10T11:51:56;99727.91;;;-9.45;68.66
45369;BME280;51342;55.250;37.668;2024-01-10T11:54:44;99727.03;;;-9.46;68.81
45369;BME280;51342;55.250;37.668;2024-01-10T11:57:27;99728.63;;;-9.46;68.70
45369;BME280;51342;55.250;37.668;2024-01-10T11:59:59;99728.63;;;-9.46;68.90
45369;BME280;51342;55.250;37.668;2024-01-10T12:02:31;99730.69;;;-9.49;68.75
45369;BME280;51342;55.250;37.668;2024-01-10T12:05:03;99735.09;;;-9.54;68.76
45369;BME280;51342;55.250;37.668;2024-01-10T12:07:35;99733.78;;;-9.57;68.93
45369;BME280;51342;55.250;37.668;2024-01-10T12:10:07;99739.78;;;-9.63;68.86
45369;BME280;51342;55.250;37.668;2024-01-10T12:12:38;99742.56;;;-9.67;68.85
45369;BME280;51342;55.250;37.668;2024-01-10T12:15:11;99748.75;;;-9.70;68.90
45369;BME280;51342;55.250;37.668;2024-01-10T12:17:42;99752.66;;;-9.72;68.95
45369;BME280;51342;55.250;37.668;2024-01-10T12:20:15;99749.94;;;-9.74;69.01
45369;BME280;51342;55.250;37.668;2024-01-10T12:22:46;99753.16;;;-9.75;68.85
45369;BME280;51342;55.250;37.668;2024-01-10T12:25:17;99756.41;;;-9.81;68.94
45369;BME280;51342;55.250;37.668;2024-01-10T12:27:50;99757.88;;;-9.89;69.02
45369;BME280;51342;55.250;37.668;2024-01-10T12:30:22;99760.88;;;-9.92;69.07
45369;BME280;51342;55.250;37.668;2024-01-10T12:32:53;99760.88;;;-9.92;69.06
45369;BME280;51342;55.250;37.668;2024-01-10T12:35:25;99754.97;;;-9.92;68.96
45369;BME280;51342;55.250;37.668;2024-01-10T12:37:56;99755.09;;;-10.03;68.92
45369;BME280;51342;55.250;37.668;2024-01-10T12:40:28;99762.19;;;-10.06;68.99
45369;BME280;51342;55.250;37.668;2024-01-10T12:43:04;99759.81;;;-10.18;69.01
45369;BME280;51342;55.250;37.668;2024-01-10T12:45:36;99760.72;;;-10.17;69.10
45369;BME280;51342;55.250;37.668;2024-01-10T12:48:13;99753.25;;;-10.23;68.98
45369;BME280;51342;55.250;37.668;2024-01-10T12:50:45;99751.06;;;-10.27;69.18
45369;BME280;51342;55.250;37.668;2024-01-10T12:53:17;99762.66;;;-10.27;69.25
45369;BME280;51342;55.250;37.668;2024-01-10T12:55:48;99764.50;;;-10.26;69.07
45369;BME280;51342;55.250;37.668;2024-01-10T12:58:19;99767.41;;;-10.23;69.15
45369;BME280;51342;55.250;37.668;2024-01-10T13:00:51;99758.25;;;-10.23;69.01
45369;BME280;51342;55.250;37.668;2024-01-10T13:03:23;99759.41;;;-10.21;69.01
45369;BME280;51342;55.250;37.668;2024-01-10T13:05:55;99765.97;;;-10.21;68.82
45369;BME280;51342;55.250;37.668;2024-01-10T13:08:27;99759.75;;;-10.30;68.82
45369;BME280;51342;55.250;37.668;2024-01-10T13:10:58;99759.63;;;-10.37;68.94
45369;BME280;51342;55.250;37.668;2024-01-10T13:13:31;99751.53;;;-10.48;69.16
45369;BME280;51342;55.250;37.668;2024-01-10T13:16:03;99738.84;;;-10.49;69.14
45369;BME280;51342;55.250;37.668;2024-01-10T13:18:35;99735.19;;;-10.51;69.40
45369;BME280;51342;55.250;37.668;2024-01-10T13:21:09;99734.56;;;-10.56;69.10
45369;BME280;51342;55.250;37.668;2024-01-10T13:23:41;99733.25;;;-10.59;69.22
45369;BME280;51342;55.250;37.668;2024-01-10T13:26:13;99733.72;;;-10.62;69.28
45369;BME280;51342;55.250;37.668;2024-01-10T13:28:44;99739.00;;;-10.66;69.41
45369;BME280;51342;55.250;37.668;2024-01-10T13:31:16;99743.81;;;-10.73;69.27
45369;BME280;51342;55.250;37.668;2024-01-10T13:33:47;99741.88;;;-10.81;69.27
45369;BME280;51342;55.250;37.668;2024-01-10T13:36:19;99733.97;;;-10.90;69.51
45369;BME280;51342;55.250;37.668;2024-01-10T13:38:50;99729.72;;;-10.97;69.29
45369;BME280;51342;55.250;37.668;2024-01-10T13:41:21;99726.63;;;-11.07;69.48
45369;BME280;51342;55.250;37.668;2024-01-10T13:43:53;99730.31;;;-11.10;69.49
45369;BME280;51342;55.250;37.668;2024-01-10T13:46:25;99725.81;;;-11.18;69.46
45369;BME280;51342;55.250;37.668;2024-01-10T13:48:56;99738.09;;;-11.20;69.57